Time;durP1;ratioP1;P1;durP2;ratioP2;P2;SDS_P1;SDS_P2;PMS_P1;PMS_P2;Temp;Humidity;BMP_temperature;BMP_pressure;BME280_temperature;BME280_humidity;BME280_pressure;Samples;Min_cycle;Max_cycle;Signal;HPM_P1;HPM_P2
2024/02/28 00:02:24;;;;;;;0.50;0.50;;;8.70;26.30;;;;;;5033924;28;20514;-79
2024/02/28 00:04:50;;;;;;;1.25;0.98;;;8.70;30.60;;;;;;5043597;28;20415;-79
2024/02/28 00:07:18;;;;;;;0.55;0.45;;;8.70;33.80;;;;;;5026799;28;20075;-80
2024/02/28 00:09:45;;;;;;;0.52;0.40;;;8.70;37.00;;;;;;5044156;28;20410;-80
2024/02/28 00:12:12;;;;;;;0.68;0.55;;;8.70;43.70;;;;;;5006598;28;20545;-79
2024/02/28 00:14:39;;;;;;;0.47;0.47;;;8.70;46.40;;;;;;5041125;28;20076;-80
2024/02/28 00:17:05;;;;;;;0.75;0.50;;;8.60;51.50;;;;;;5028575;28;20049;-79
2024/02/28 00:19:32;;;;;;;0.85;0.55;;;8.60;55.90;;;;;;5045107;28;20348;-80
2024/02/28 00:22:01;;;;;;;0.70;0.63;;;8.60;61.50;;;;;;5008418;28;20459;-79
2024/02/28 00:24:29;;;;;;;0.30;0.30;;;8.50;68.10;;;;;;5039827;28;20053;-80
2024/02/28 00:26:56;;;;;;;0.43;0.43;;;8.60;71.60;;;;;;5041061;28;20398;-80
2024/02/28 00:29:23;;;;;;;1.25;0.70;;;8.60;73.80;;;;;;5041064;28;20049;-80
2024/02/28 00:31:51;;;;;;;0.70;0.60;;;8.60;88.50;;;;;;5044378;28;20044;-79
2024/02/28 00:34:17;;;;;;;0.60;0.50;;;8.60;78.00;;;;;;5045936;28;20041;-80
2024/02/28 00:36:45;;;;;;;0.60;0.50;;;8.50;80.00;;;;;;5028332;28;20095;-79
2024/02/28 00:39:21;;;;;;;0.82;0.60;;;8.60;81.00;;;;;;5044148;28;20131;-79
2024/02/28 00:41:48;;;;;;;0.43;0.40;;;8.60;83.80;;;;;;5042331;28;20052;-79
2024/02/28 00:44:15;;;;;;;0.43;0.43;;;8.60;83.40;;;;;;5040419;28;20041;-79
2024/02/28 00:46:42;;;;;;;0.65;0.52;;;8.60;85.80;;;;;;5040152;28;20045;-79
2024/02/28 00:49:09;;;;;;;0.50;0.40;;;8.60;90.50;;;;;;5009310;28;20057;-79
2024/02/28 00:51:37;;;;;;;0.40;0.40;;;8.50;91.40;;;;;;5040884;28;20071;-79
2024/02/28 00:54:04;;;;;;;1.42;0.60;;;8.50;92.50;;;;;;5040959;28;20132;-79
2024/02/28 00:56:31;;;;;;;0.75;0.60;;;8.50;94.50;;;;;;5039019;28;20049;-79
2024/02/28 00:58:58;;;;;;;0.40;0.40;;;8.50;97.80;;;;;;5027143;28;20060;-79
2024/02/28 01:01:24;;;;;;;0.40;0.40;;;8.50;99.60;;;;;;5009879;28;20056;-79
2024/02/28 01:03:51;;;;;;;0.50;0.50;;;8.50;99.90;;;;;;5039481;28;20056;-80
2024/02/28 01:06:18;;;;;;;0.43;0.43;;;8.50;99.90;;;;;;5022658;28;20132;-79
2024/02/28 01:08:45;;;;;;;0.45;0.45;;;8.50;99.90;;;;;;5009897;28;20434;-79
2024/02/28 01:11:12;;;;;;;0.35;0.30;;;8.50;99.90;;;;;;5025453;28;20053;-80
2024/02/28 01:13:40;;;;;;;0.50;0.47;;;8.50;99.90;;;;;;5042422;28;20052;-80
2024/02/28 01:16:06;;;;;;;0.45;0.45;;;8.40;99.90;;;;;;5010385;28;20128;-80
2024/02/28 01:18:33;;;;;;;0.55;0.55;;;8.40;99.90;;;;;;5026353;28;20463;-79
2024/02/28 01:21:00;;;;;;;0.30;0.30;;;8.40;99.90;;;;;;5006593;28;20095;-80
2024/02/28 01:23:27;;;;;;;0.50;0.50;;;8.30;99.90;;;;;;5039337;28;20265;-79
2024/02/28 01:25:54;;;;;;;0.57;0.50;;;8.30;99.90;;;;;;5025621;28;20085;-80
2024/02/28 01:28:21;;;;;;;0.50;0.50;;;8.30;99.90;;;;;;5042248;28;20491;-80
2024/02/28 01:30:48;;;;;;;0.88;0.40;;;8.20;99.90;;;;;;5042618;28;20049;-79
2024/02/28 01:33:15;;;;;;;0.10;0.10;;;8.20;99.90;;;;;;5006143;28;20041;-79
2024/02/28 01:35:42;;;;;;;0.40;0.30;;;8.20;99.90;;;;;;5006871;28;20053;-79
2024/02/28 01:38:09;;;;;;;0.50;0.50;;;8.20;99.90;;;;;;4982185;28;1174330;-79
2024/02/28 01:40:36;;;;;;;0.40;0.40;;;8.20;99.90;;;;;;5022639;28;20496;-82
2024/02/28 01:43:07;;;;;;;0.30;0.30;;;8.20;99.90;;;;;;4999933;28;20099;-79
2024/02/28 01:45:33;;;;;;;0.70;0.50;;;8.10;99.90;;;;;;5043337;28;20053;-79
2024/02/28 01:48:00;;;;;;;0.47;0.40;;;8.10;99.90;;;;;;5044105;28;20042;-79
2024/02/28 01:50:27;;;;;;;0.50;0.50;;;8.20;99.90;;;;;;5044894;28;20049;-79
2024/02/28 01:52:54;;;;;;;0.65;0.60;;;8.20;99.90;;;;;;5043644;28;20406;-79
2024/02/28 01:55:21;;;;;;;0.52;0.40;;;8.20;99.90;;;;;;5043090;28;20452;-79
2024/02/28 01:57:48;;;;;;;0.30;0.30;;;8.20;99.90;;;;;;5026109;28;20135;-79
2024/02/28 02:00:15;;;;;;;0.40;0.22;;;8.20;99.90;;;;;;5043713;28;20049;-79
2024/02/28 02:02:42;;;;;;;0.30;0.30;;;8.20;99.90;;;;;;5042931;28;20060;-79
2024/02/28 02:05:09;;;;;;;0.40;0.40;;;8.10;99.90;;;;;;5023397;28;20420;-79
2024/02/28 02:07:36;;;;;;;0.60;0.60;;;8.20;99.90;;;;;;5005949;28;20476;-79
2024/02/28 02:10:08;;;;;;;0.63;0.40;;;8.20;99.90;;;;;;5024650;28;20049;-79
2024/02/28 02:12:34;;;;;;;0.50;0.50;;;8.20;99.90;;;;;;5029099;28;20048;-79
2024/02/28 02:15:01;;;;;;;0.30;0.30;;;8.20;99.90;;;;;;5036384;28;20049;-79
2024/02/28 02:17:28;;;;;;;0.82;0.55;;;8.20;99.90;;;;;;5023326;28;20049;-79
2024/02/28 02:19:55;;;;;;;0.35;0.35;;;8.10;99.90;;;;;;5006989;28;20049;-79
2024/02/28 02:22:22;;;;;;;0.40;0.30;;;8.20;99.90;;;;;;5007482;28;20107;-78
2024/02/28 02:24:48;;;;;;;0.40;0.40;;;8.10;99.90;;;;;;5020622;28;20057;-79
2024/02/28 02:27:15;;;;;;;0.38;0.38;;;8.10;99.90;;;;;;5021941;28;20045;-79
2024/02/28 02:29:42;;;;;;;0.30;0.30;;;8.10;99.90;;;;;;5039204;28;20147;-79
2024/02/28 02:32:09;;;;;;;0.43;0.30;;;8.00;99.90;;;;;;5029176;28;20046;-79
2024/02/28 02:34:36;;;;;;;0.38;0.35;;;8.00;99.90;;;;;;5023902;28;20053;-79
2024/02/28 02:37:04;;;;;;;0.50;0.50;;;7.90;99.90;;;;;;5042773;28;20508;-78
2024/02/28 02:39:32;;;;;;;0.75;0.50;;;7.80;99.90;;;;;;5043498;28;20045;-78
2024/02/28 02:41:59;;;;;;;0.95;0.60;;;7.70;99.90;;;;;;5043179;28;20142;-79
2024/02/28 02:44:26;;;;;;;0.88;0.63;;;7.60;99.90;;;;;;5045658;28;20080;-79
2024/02/28 02:46:53;;;;;;;0.30;0.30;;;7.50;99.90;;;;;;5025200;28;20083;-79
2024/02/28 02:49:19;;;;;;;0.40;0.40;;;7.40;99.90;;;;;;5025504;28;20106;-79
2024/02/28 02:51:46;;;;;;;0.22;0.22;;;7.40;99.90;;;;;;5008932;28;20049;-79
2024/02/28 02:54:13;;;;;;;0.30;0.30;;;7.30;99.90;;;;;;5021586;28;20088;-79
2024/02/28 02:56:42;;;;;;;0.45;0.45;;;7.20;99.90;;;;;;5021739;28;20050;-78
2024/02/28 02:59:11;;;;;;;0.40;0.40;;;7.10;99.90;;;;;;5021425;28;20053;-79
2024/02/28 03:01:38;;;;;;;0.60;0.55;;;7.00;99.90;;;;;;5023067;28;20128;-79
2024/02/28 03:04:05;;;;;;;0.80;0.50;;;7.00;99.90;;;;;;5038886;28;20582;-79
2024/02/28 03:06:32;;;;;;;0.40;0.40;;;6.90;99.90;;;;;;5042402;28;20095;-79
2024/02/28 03:08:59;;;;;;;0.80;0.50;;;6.80;99.90;;;;;;5041693;28;20438;-79
2024/02/28 03:11:25;;;;;;;0.60;0.40;;;6.70;99.90;;;;;;5040235;28;20249;-79
2024/02/28 03:13:52;;;;;;;0.30;0.30;;;6.70;99.90;;;;;;5040680;28;20057;-78
2024/02/28 03:16:19;;;;;;;0.57;0.57;;;6.60;99.90;;;;;;5027387;28;20099;-79
2024/02/28 03:18:46;;;;;;;0.47;0.47;;;6.60;99.90;;;;;;5022148;28;20130;-79
2024/02/28 03:21:13;;;;;;;0.43;0.43;;;6.50;99.90;;;;;;5031479;28;20255;-78
2024/02/28 03:23:40;;;;;;;0.75;0.50;;;6.50;99.90;;;;;;5040144;28;20479;-79
2024/02/28 03:26:07;;;;;;;0.30;0.30;;;6.40;99.90;;;;;;5039197;28;20049;-79
2024/02/28 03:28:34;;;;;;;0.47;0.40;;;6.30;99.90;;;;;;5040315;28;20045;-79
2024/02/28 03:31:00;;;;;;;0.35;0.32;;;6.30;99.90;;;;;;5023999;28;20099;-78
2024/02/28 03:33:29;;;;;;;0.30;0.30;;;6.10;99.90;;;;;;5020333;28;20115;-79
2024/02/28 03:35:56;;;;;;;0.63;0.50;;;6.10;99.90;;;;;;5020266;28;20119;-79
2024/02/28 03:38:23;;;;;;;0.43;0.43;;;6.10;99.90;;;;;;5020292;28;20096;-78
2024/02/28 03:40:49;;;;;;;0.45;0.45;;;6.00;99.90;;;;;;5019923;28;20045;-79
2024/02/28 03:43:17;;;;;;;0.40;0.40;;;5.90;99.90;;;;;;4994033;28;20256;-79
2024/02/28 03:45:43;;;;;;;0.40;0.40;;;5.90;99.90;;;;;;5020834;28;20053;-79
2024/02/28 03:48:10;;;;;;;0.20;0.20;;;5.90;99.90;;;;;;5020493;28;20123;-79
2024/02/28 03:50:37;;;;;;;0.30;0.30;;;5.80;99.90;;;;;;5020142;28;20049;-78
2024/02/28 03:53:05;;;;;;;1.05;0.70;;;5.80;99.90;;;;;;5028700;28;20053;-79
2024/02/28 03:55:32;;;;;;;0.50;0.50;;;5.80;99.90;;;;;;5041298;28;20136;-79
2024/02/28 03:57:58;;;;;;;0.80;0.50;;;5.80;1.00;;;;;;5023293;28;20057;-79
2024/02/28 04:00:26;;;;;;;0.40;0.40;;;5.80;1.00;;;;;;5020440;28;20049;-79
2024/02/28 04:02:53;;;;;;;0.30;0.30;;;5.90;1.00;;;;;;5010474;28;20057;-79
2024/02/28 04:05:19;;;;;;;0.57;0.50;;;5.90;1.00;;;;;;5023516;28;20049;-79
2024/02/28 04:07:46;;;;;;;0.40;0.40;;;6.00;1.00;;;;;;5007644;28;20384;-79
2024/02/28 04:10:15;;;;;;;0.63;0.50;;;6.00;26.00;;;;;;5023916;28;20106;-79
2024/02/28 04:12:44;;;;;;;0.25;0.25;;;6.00;99.90;;;;;;5022489;28;20049;-78
2024/02/28 04:15:14;;;;;;;0.40;0.40;;;6.10;99.90;;;;;;5024148;28;20371;-79
2024/02/28 04:17:42;;;;;;;0.30;0.30;;;6.20;99.90;;;;;;5024008;28;20404;-78
2024/02/28 04:20:10;;;;;;;0.50;0.50;;;6.30;1.00;;;;;;5024035;28;20040;-79
2024/02/28 04:22:37;;;;;;;0.40;0.40;;;6.40;1.90;;;;;;5023405;28;20042;-78
2024/02/28 04:25:08;;;;;;;0.35;0.35;;;6.60;99.90;;;;;;5023477;28;20045;-78
2024/02/28 04:27:38;;;;;;;0.32;0.32;;;6.60;99.90;;;;;;5005580;28;20072;-79
2024/02/28 04:30:05;;;;;;;0.35;0.35;;;6.70;99.90;;;;;;5008659;28;20047;-79
2024/02/28 04:32:32;;;;;;;0.45;0.40;;;6.80;99.90;;;;;;5027117;28;20061;-79
2024/02/28 04:34:59;;;;;;;0.30;0.30;;;6.80;99.90;;;;;;5027107;28;20106;-79
2024/02/28 04:37:26;;;;;;;0.38;0.38;;;6.80;99.90;;;;;;5010068;28;20057;-79
2024/02/28 04:39:53;;;;;;;0.40;0.30;;;6.90;99.90;;;;;;5010836;28;20080;-79
2024/02/28 04:42:19;;;;;;;0.38;0.32;;;6.90;99.90;;;;;;5042128;28;21122;-79
2024/02/28 04:44:46;;;;;;;0.50;0.50;;;6.90;99.90;;;;;;5027067;28;20352;-79
2024/02/28 04:47:13;;;;;;;0.60;0.50;;;6.80;99.90;;;;;;5026882;28;20083;-79
2024/02/28 04:49:40;;;;;;;0.50;0.50;;;6.90;99.90;;;;;;5026857;28;20045;-79
2024/02/28 04:52:07;;;;;;;0.40;0.40;;;6.90;99.90;;;;;;5042933;28;20049;-79
2024/02/28 04:54:34;;;;;;;0.40;0.40;;;6.90;99.90;;;;;;5026636;28;20045;-79
2024/02/28 04:57:00;;;;;;;0.43;0.40;;;6.90;99.90;;;;;;5043421;28;20067;-79
2024/02/28 04:59:27;;;;;;;0.32;0.30;;;6.90;99.90;;;;;;5042857;28;20110;-79
2024/02/28 05:01:54;;;;;;;0.43;0.40;;;7.00;99.90;;;;;;5042736;28;20041;-79
2024/02/28 05:04:21;;;;;;;0.50;0.50;;;7.00;99.90;;;;;;5006257;28;20049;-79
2024/02/28 05:06:48;;;;;;;0.75;0.52;;;7.00;99.90;;;;;;5006457;28;20057;-79
2024/02/28 05:09:15;;;;;;;0.60;0.60;;;7.00;99.90;;;;;;5022971;28;20045;-79
2024/02/28 05:11:43;;;;;;;0.30;0.30;;;7.00;99.90;;;;;;5005787;28;20055;-79
2024/02/28 05:14:10;;;;;;;0.93;0.80;;;7.10;99.90;;;;;;5037861;28;20052;-79
2024/02/28 05:16:37;;;;;;;0.55;0.43;;;7.10;99.90;;;;;;5009944;28;20060;-79
2024/02/28 05:19:04;;;;;;;0.70;0.60;;;7.20;99.90;;;;;;5026632;28;20128;-79
2024/02/28 05:21:31;;;;;;;0.88;0.63;;;7.20;99.90;;;;;;5025680;28;20550;-79
2024/02/28 05:23:58;;;;;;;0.82;0.80;;;7.20;99.90;;;;;;5022773;28;20050;-79
2024/02/28 05:26:25;;;;;;;0.60;0.50;;;7.20;99.90;;;;;;5005355;28;20053;-79
2024/02/28 05:28:52;;;;;;;0.60;0.60;;;7.30;99.90;;;;;;5022591;28;20499;-79
2024/02/28 05:31:22;;;;;;;0.68;0.60;;;7.30;99.90;;;;;;5022441;28;20219;-79
2024/02/28 05:33:54;;;;;;;0.82;0.70;;;7.30;99.90;;;;;;5042456;28;20068;-79
2024/02/28 05:36:21;;;;;;;0.98;0.50;;;7.30;99.90;;;;;;5025722;28;20534;-79
2024/02/28 05:38:48;;;;;;;0.70;0.70;;;7.40;99.90;;;;;;5042669;28;20416;-79
2024/02/28 05:41:18;;;;;;;0.85;0.73;;;7.30;8.90;;;;;;5023823;28;20052;-79
2024/02/28 05:43:48;;;;;;;0.98;0.57;;;7.40;84.80;;;;;;5042201;28;20049;-79
2024/02/28 05:46:15;;;;;;;0.75;0.70;;;7.40;68.80;;;;;;5026140;28;20044;-79
2024/02/28 05:48:42;;;;;;;0.65;0.60;;;7.40;53.10;;;;;;5005082;28;20085;-79
2024/02/28 05:51:10;;;;;;;0.82;0.65;;;7.40;78.00;;;;;;5021679;28;20049;-79
2024/02/28 05:53:38;;;;;;;1.52;0.63;;;7.40;99.90;;;;;;5033312;28;20053;-79
2024/02/28 05:56:12;;;;;;;0.40;0.40;;;7.40;35.80;;;;;;5040932;28;20158;-79
2024/02/28 05:58:43;;;;;;;1.00;0.80;;;7.40;1.00;;;;;;5026019;28;20056;-79
2024/02/28 06:01:10;;;;;;;0.95;0.75;;;7.50;1.00;;;;;;5026637;28;20396;-79
2024/02/28 06:03:37;;;;;;;0.75;0.70;;;7.40;1.00;;;;;;5006910;28;20059;-78
2024/02/28 06:06:05;;;;;;;0.95;0.80;;;7.40;1.00;;;;;;5022923;28;20137;-79
2024/02/28 06:08:39;;;;;;;0.95;0.50;;;7.40;1.00;;;;;;5038719;28;20172;-79
2024/02/28 06:11:07;;;;;;;0.65;0.65;;;7.50;36.00;;;;;;5015269;28;20045;-80
2024/02/28 06:13:33;;;;;;;0.60;0.60;;;7.50;15.20;;;;;;5014488;28;20065;-79
2024/02/28 06:16:00;;;;;;;1.50;1.30;;;7.50;66.50;;;;;;4998749;28;20508;-79
2024/02/28 06:18:27;;;;;;;0.80;0.60;;;7.50;1.00;;;;;;5030901;28;20098;-79
2024/02/28 06:20:55;;;;;;;0.80;0.80;;;7.50;20.20;;;;;;5031496;28;20136;-79
2024/02/28 06:23:24;;;;;;;0.73;0.60;;;7.50;43.50;;;;;;5001847;28;20046;-79
2024/02/28 06:25:56;;;;;;;0.85;0.70;;;7.50;1.00;;;;;;5012829;28;20385;-79
2024/02/28 06:28:23;;;;;;;1.08;0.73;;;7.50;1.00;;;;;;5005344;28;20041;-80
2024/02/28 06:30:50;;;;;;;1.00;0.85;;;7.50;49.30;;;;;;5014194;28;20521;-80
2024/02/28 06:33:17;;;;;;;0.60;0.43;;;7.50;47.00;;;;;;5013718;28;20049;-79
2024/02/28 06:35:44;;;;;;;0.75;0.73;;;7.50;1.00;;;;;;5003420;28;20142;-79
2024/02/28 06:38:11;;;;;;;0.52;0.52;;;7.50;1.00;;;;;;5021680;28;20452;-78
2024/02/28 06:40:38;;;;;;;0.73;0.68;;;7.50;1.00;;;;;;5003924;28;20057;-79
2024/02/28 06:43:05;;;;;;;0.68;0.57;;;7.60;1.00;;;;;;5011702;28;20066;-79
2024/02/28 06:45:32;;;;;;;1.80;0.73;;;7.60;1.00;;;;;;5029604;28;20064;-80
2024/02/28 06:47:59;;;;;;;0.70;0.70;;;7.60;1.00;;;;;;5018339;28;20049;-79
2024/02/28 06:50:26;;;;;;;0.52;0.52;;;7.60;1.00;;;;;;5013360;28;20053;-78
2024/02/28 06:52:53;;;;;;;0.90;0.60;;;7.60;99.90;;;;;;5029204;28;20450;-80
2024/02/28 06:55:20;;;;;;;0.80;0.75;;;7.60;99.90;;;;;;5003408;28;20052;-79
2024/02/28 06:57:47;;;;;;;0.73;0.70;;;7.60;99.90;;;;;;5013031;28;20842;-80
2024/02/28 07:00:15;;;;;;;1.52;0.82;;;7.50;99.90;;;;;;5001845;28;20049;-79
2024/02/28 07:02:43;;;;;;;1.38;0.85;;;7.50;99.90;;;;;;5010885;28;20064;-79
2024/02/28 07:05:10;;;;;;;1.20;1.00;;;7.60;99.90;;;;;;5024819;28;20051;-80
2024/02/28 07:07:37;;;;;;;1.10;0.85;;;7.50;99.90;;;;;;5019073;28;20056;-80
2024/02/28 07:10:04;;;;;;;1.10;1.00;;;7.50;99.90;;;;;;5040270;28;20061;-79
2024/02/28 07:12:31;;;;;;;1.10;1.00;;;7.50;99.90;;;;;;5007516;28;20164;-80
2024/02/28 07:14:58;;;;;;;0.75;0.65;;;7.50;99.90;;;;;;5026046;28;20091;-79
2024/02/28 07:17:25;;;;;;;1.20;0.80;;;7.50;99.90;;;;;;4989607;28;20431;-79
2024/02/28 07:19:52;;;;;;;0.85;0.70;;;7.50;99.90;;;;;;5014449;28;20122;-79
2024/02/28 07:22:18;;;;;;;0.68;0.68;;;7.50;99.90;;;;;;5031394;28;20053;-79
2024/02/28 07:24:45;;;;;;;0.93;0.80;;;7.50;99.90;;;;;;5004457;28;20053;-79
2024/02/28 07:27:12;;;;;;;0.80;0.70;;;7.50;99.90;;;;;;5041126;28;20092;-78
2024/02/28 07:29:39;;;;;;;0.60;0.57;;;7.50;99.90;;;;;;5022359;28;20053;-78
2024/02/28 07:32:07;;;;;;;0.93;0.60;;;7.50;99.90;;;;;;5012958;28;20399;-78
2024/02/28 07:34:34;;;;;;;0.60;0.60;;;7.50;99.90;;;;;;5022206;28;20037;-78
2024/02/28 07:37:01;;;;;;;0.98;0.88;;;7.50;99.90;;;;;;5042858;28;20049;-78
2024/02/28 07:39:28;;;;;;;0.90;0.85;;;7.50;99.90;;;;;;5041068;28;20080;-78
2024/02/28 07:41:55;;;;;;;0.90;0.70;;;7.60;99.90;;;;;;5036462;28;20242;-78
2024/02/28 07:44:22;;;;;;;0.70;0.70;;;7.60;99.90;;;;;;5012864;28;20048;-78
2024/02/28 07:46:52;;;;;;;0.70;0.70;;;7.70;99.90;;;;;;5002992;28;20056;-78
2024/02/28 07:49:19;;;;;;;0.40;0.40;;;7.70;1.00;;;;;;5010865;28;20395;-77
2024/02/28 07:51:46;;;;;;;0.70;0.70;;;7.80;99.90;;;;;;5021758;28;20075;-78
2024/02/28 07:54:13;;;;;;;0.82;0.75;;;7.90;99.90;;;;;;5007226;28;20056;-78
2024/02/28 07:56:40;;;;;;;0.63;0.60;;;7.90;99.90;;;;;;5022172;28;20123;-78
2024/02/28 07:59:06;;;;;;;0.93;0.65;;;8.00;99.90;;;;;;5038259;28;20685;-78
2024/02/28 08:01:33;;;;;;;0.98;0.77;;;8.00;99.90;;;;;;5041866;28;20049;-78
2024/02/28 08:04:01;;;;;;;0.85;0.68;;;8.00;99.90;;;;;;5015878;28;20080;-79
2024/02/28 08:06:29;;;;;;;0.57;0.57;;;8.10;99.90;;;;;;5012643;28;20064;-78
2024/02/28 08:08:56;;;;;;;0.82;0.50;;;8.20;99.90;;;;;;5045581;28;20121;-78
2024/02/28 08:11:23;;;;;;;0.57;0.55;;;8.30;99.90;;;;;;5026270;28;20053;-78
2024/02/28 08:13:50;;;;;;;0.65;0.57;;;8.30;99.90;;;;;;5016886;28;20049;-77
2024/02/28 08:16:17;;;;;;;0.45;0.45;;;8.40;91.60;;;;;;5035230;28;20049;-77
2024/02/28 08:18:44;;;;;;;0.38;0.38;;;8.40;86.10;;;;;;5022950;28;20052;-78
2024/02/28 08:21:11;;;;;;;0.70;0.60;;;8.50;33.30;;;;;;5031617;28;20046;-81
2024/02/28 08:23:38;;;;;;;0.65;0.55;;;8.60;1.00;;;;;;5038001;28;20045;-78
2024/02/28 08:26:05;;;;;;;0.70;0.60;;;8.60;1.00;;;;;;5018496;28;20420;-78
2024/02/28 08:28:32;;;;;;;0.90;0.60;;;8.70;1.00;;;;;;5016822;28;20049;-78
2024/02/28 08:30:59;;;;;;;0.40;0.40;;;8.70;1.00;;;;;;5015160;28;20160;-78
2024/02/28 08:33:26;;;;;;;0.50;0.50;;;8.80;1.00;;;;;;5031604;28;20141;-78
2024/02/28 08:35:53;;;;;;;0.50;0.50;;;8.90;1.00;;;;;;5022197;28;20642;-78
2024/02/28 08:38:21;;;;;;;0.60;0.60;;;8.90;1.00;;;;;;5015614;28;20052;-78
2024/02/28 08:40:47;;;;;;;0.60;0.60;;;9.00;1.00;;;;;;5031856;28;20075;-78
2024/02/28 08:43:15;;;;;;;0.63;0.57;;;9.00;99.90;;;;;;5031870;28;20046;-78
2024/02/28 08:45:44;;;;;;;0.77;0.65;;;9.00;99.90;;;;;;5010094;28;20053;-77
2024/02/28 08:48:12;;;;;;;0.77;0.70;;;9.10;99.90;;;;;;5024543;28;20250;-78
2024/02/28 08:50:39;;;;;;;0.70;0.70;;;9.10;99.90;;;;;;5040573;28;20487;-77
2024/02/28 08:53:06;;;;;;;0.70;0.70;;;9.10;99.90;;;;;;5027925;28;20111;-77
2024/02/28 08:55:33;;;;;;;1.77;1.05;;;9.20;99.90;;;;;;5009682;28;20122;-77
2024/02/28 08:57:59;;;;;;;0.82;0.77;;;9.20;99.90;;;;;;5003106;28;20260;-77
2024/02/28 09:00:26;;;;;;;0.73;0.73;;;9.30;99.90;;;;;;5009328;28;20057;-78
2024/02/28 09:02:53;;;;;;;0.60;0.60;;;9.40;99.90;;;;;;5013411;28;20053;-77
2024/02/28 09:05:20;;;;;;;0.90;0.70;;;9.50;99.90;;;;;;5038748;28;20057;-78
2024/02/28 09:07:51;;;;;;;1.35;0.80;;;9.60;99.90;;;;;;5017470;28;20045;-77
2024/02/28 09:10:23;;;;;;;0.70;0.70;;;9.70;99.90;;;;;;5030735;28;20049;-82
2024/02/28 09:12:51;;;;;;;0.82;0.82;;;9.70;99.90;;;;;;5011007;28;20136;-78
2024/02/28 09:15:18;;;;;;;1.23;0.80;;;9.70;99.90;;;;;;5022073;28;20056;-78
2024/02/28 09:17:45;;;;;;;1.25;0.85;;;9.80;99.90;;;;;;5033588;28;20174;-78
2024/02/28 09:20:12;;;;;;;1.08;0.98;;;9.80;99.90;;;;;;5003783;28;20662;-79
2024/02/28 09:22:39;;;;;;;0.80;0.80;;;10.00;99.90;;;;;;5041910;28;20051;-79
2024/02/28 09:25:08;;;;;;;0.95;0.80;;;10.00;99.90;;;;;;5004839;28;20089;-79
2024/02/28 09:27:36;;;;;;;1.13;0.95;;;10.10;99.90;;;;;;5003327;28;20149;-79
2024/02/28 09:30:03;;;;;;;0.93;0.70;;;10.10;99.90;;;;;;5014712;28;20115;-78
2024/02/28 09:32:30;;;;;;;1.10;0.80;;;10.30;99.90;;;;;;5007559;28;20511;-79
2024/02/28 09:34:57;;;;;;;2.13;1.67;;;10.30;99.90;;;;;;5044600;28;20060;-79
2024/02/28 09:37:24;;;;;;;1.85;1.33;;;10.40;99.90;;;;;;5043584;28;20471;-79
2024/02/28 09:39:52;;;;;;;1.10;1.00;;;10.40;99.90;;;;;;5007955;28;20183;-79
2024/02/28 09:42:19;;;;;;;1.13;0.85;;;10.40;99.90;;;;;;5024015;28;20053;-78
2024/02/28 09:44:47;;;;;;;1.05;0.82;;;10.50;99.90;;;;;;5041274;28;20056;-79
2024/02/28 09:47:14;;;;;;;1.35;1.00;;;10.50;99.90;;;;;;5043426;28;20417;-79
2024/02/28 09:49:42;;;;;;;0.93;0.82;;;10.60;99.90;;;;;;5007208;28;20214;-79
2024/02/28 09:52:09;;;;;;;1.63;1.08;;;10.60;99.90;;;;;;5023520;28;20053;-79
2024/02/28 09:54:36;;;;;;;0.70;0.70;;;10.60;99.90;;;;;;5040223;28;20156;-79
2024/02/28 09:57:03;;;;;;;1.15;1.02;;;10.60;99.90;;;;;;5025026;28;20490;-79
2024/02/28 09:59:30;;;;;;;0.80;0.80;;;10.60;99.90;;;;;;5007267;28;20103;-79
2024/02/28 10:02:13;;;;;;;1.30;0.95;;;10.60;99.90;;;;;;5009231;28;20059;-79
2024/02/28 10:04:39;;;;;;;1.02;0.93;;;10.60;99.90;;;;;;5013920;28;20095;-80
2024/02/28 10:07:16;;;;;;;1.63;1.05;;;10.60;99.90;;;;;;4997059;28;20048;-80
2024/02/28 10:09:43;;;;;;;0.93;0.88;;;10.70;99.90;;;;;;5019576;28;20119;-80
2024/02/28 10:12:10;;;;;;;1.00;0.77;;;10.80;99.90;;;;;;5018812;28;20053;-80
2024/02/28 10:14:38;;;;;;;0.88;0.80;;;10.80;99.90;;;;;;5018165;28;20397;-80
2024/02/28 10:17:05;;;;;;;1.17;1.00;;;10.80;99.90;;;;;;5019911;28;20065;-80
2024/02/28 10:19:33;;;;;;;1.00;0.90;;;10.80;99.90;;;;;;5025412;28;20052;-80
2024/02/28 10:21:59;;;;;;;1.17;0.93;;;10.80;99.90;;;;;;5044364;28;20131;-80
2024/02/28 10:24:27;;;;;;;0.95;0.82;;;10.80;99.90;;;;;;5032567;28;20588;-80
2024/02/28 10:26:57;;;;;;;1.33;1.00;;;10.80;99.90;;;;;;5021059;28;20050;-80
2024/02/28 10:29:32;;;;;;;1.27;0.98;;;10.80;99.90;;;;;;5041816;28;20200;-80
2024/02/28 10:32:00;;;;;;;1.02;0.82;;;10.90;99.90;;;;;;5028297;28;20045;-80
2024/02/28 10:34:27;;;;;;;0.98;0.80;;;10.90;99.90;;;;;;5038602;28;20060;-80
2024/02/28 10:36:53;;;;;;;1.67;1.13;;;10.90;99.90;;;;;;5011842;28;20065;-79
2024/02/28 10:39:21;;;;;;;1.38;0.93;;;11.00;99.90;;;;;;5036750;28;20086;-80
2024/02/28 10:41:48;;;;;;;1.02;0.93;;;11.00;99.90;;;;;;5039729;28;20131;-80
2024/02/28 10:44:15;;;;;;;1.25;0.90;;;11.10;99.90;;;;;;5031700;28;20041;-79
2024/02/28 10:46:42;;;;;;;0.93;0.73;;;11.20;99.90;;;;;;5005715;28;20468;-79
2024/02/28 10:49:09;;;;;;;0.70;0.70;;;11.30;99.90;;;;;;5011487;28;20106;-80
2024/02/28 10:51:36;;;;;;;0.80;0.80;;;11.30;99.90;;;;;;5041565;28;20119;-80
2024/02/28 10:54:13;;;;;;;0.60;0.60;;;11.40;99.90;;;;;;5034305;28;20067;-79
2024/02/28 10:56:42;;;;;;;0.73;0.70;;;11.50;99.90;;;;;;5024364;28;20057;-79
2024/02/28 10:59:15;;;;;;;1.38;0.63;;;11.60;99.90;;;;;;5035127;28;20056;-80
2024/02/28 11:01:43;;;;;;;0.82;0.70;;;11.60;99.90;;;;;;5017192;28;20059;-80
2024/02/28 11:04:12;;;;;;;0.65;0.63;;;11.70;99.90;;;;;;5022869;28;20068;-80
2024/02/28 11:06:55;;;;;;;0.50;0.50;;;11.60;99.90;;;;;;5010894;28;20053;-81
2024/02/28 11:09:23;;;;;;;0.73;0.60;;;11.60;99.90;;;;;;5017624;28;20075;-80
2024/02/28 11:11:51;;;;;;;0.75;0.50;;;11.70;99.90;;;;;;4987890;28;20045;-79
2024/02/28 11:14:22;;;;;;;1.58;0.60;;;11.70;99.90;;;;;;5024242;28;20124;-79
2024/02/28 11:16:59;;;;;;;0.77;0.73;;;11.80;99.90;;;;;;5012673;28;20041;-79
2024/02/28 11:19:28;;;;;;;0.60;0.60;;;11.90;99.90;;;;;;5026140;28;20145;-79
2024/02/28 11:21:55;;;;;;;0.50;0.50;;;12.00;99.90;;;;;;5007385;28;20152;-82
2024/02/28 11:24:28;;;;;;;0.68;0.45;;;12.00;99.90;;;;;;5022341;28;20479;-83
2024/02/28 11:26:55;;;;;;;0.60;0.60;;;12.10;99.90;;;;;;5016247;28;20065;-83
2024/02/28 11:29:26;;;;;;;1.13;0.70;;;12.20;99.90;;;;;;4998691;28;20052;-83
2024/02/28 11:31:53;;;;;;;1.70;0.60;;;12.20;99.90;;;;;;5009177;28;20065;-83
2024/02/28 11:34:20;;;;;;;0.57;0.47;;;12.30;99.90;;;;;;5020353;28;20145;-82
2024/02/28 11:36:49;;;;;;;0.80;0.52;;;12.30;95.00;;;;;;5005767;28;20041;-82
2024/02/28 11:39:16;;;;;;;0.98;0.57;;;12.30;69.80;;;;;;5010660;28;20064;-83
2024/02/28 11:41:46;;;;;;;1.38;0.65;;;12.30;72.00;;;;;;5024646;28;20114;-83
2024/02/28 11:44:13;;;;;;;1.35;0.63;;;12.40;55.50;;;;;;5007371;28;20832;-83
2024/02/28 11:46:47;;;;;;;1.15;0.52;;;12.50;55.90;;;;;;5025059;28;20072;-83
2024/02/28 11:49:14;;;;;;;0.85;0.68;;;12.70;85.30;;;;;;5016694;28;20073;-81
2024/02/28 11:51:42;;;;;;;1.30;0.93;;;12.90;50.40;;;;;;5015923;28;20059;-82
2024/02/28 11:54:13;;;;;;;0.80;0.68;;;12.90;34.20;;;;;;5021877;28;20659;-81
2024/02/28 11:56:40;;;;;;;0.88;0.70;;;13.10;32.50;;;;;;5015072;28;20395;-81
2024/02/28 11:59:09;;;;;;;0.98;0.90;;;13.30;87.20;;;;;;4999929;28;20060;-83
2024/02/28 12:01:41;;;;;;;0.70;0.60;;;13.50;76.70;;;;;;5019041;28;20576;-82
2024/02/28 12:04:08;;;;;;;0.60;0.60;;;13.80;85.60;;;;;;5015782;28;20073;-82
2024/02/28 12:06:36;;;;;;;1.15;0.70;;;13.70;43.90;;;;;;5004582;28;20041;-82
2024/02/28 12:09:10;;;;;;;1.02;0.70;;;13.70;12.20;;;;;;5017414;28;20068;-83
2024/02/28 12:11:42;;;;;;;0.47;0.47;;;13.70;22.10;;;;;;5006425;28;20045;-84
2024/02/28 12:14:09;;;;;;;1.33;0.70;;;13.80;21.30;;;;;;5020042;28;20111;-82
2024/02/28 12:16:37;;;;;;;0.55;0.55;;;13.60;1.00;;;;;;5017096;28;20060;-82
2024/02/28 12:19:10;;;;;;;1.20;0.73;;;13.50;1.00;;;;;;5013642;28;20052;-82
2024/02/28 12:21:38;;;;;;;1.25;0.70;;;13.30;1.00;;;;;;5020887;28;20046;-84
2024/02/28 12:24:11;;;;;;;1.38;0.80;;;13.30;1.00;;;;;;5017509;28;20499;-83
2024/02/28 12:26:38;;;;;;;;;;;13.20;1.00;;;;;;5003834;28;20057;-83
2024/02/28 12:29:05;;;;;;;0.60;0.60;;;13.20;1.00;;;;;;5014440;28;19928;-83
2024/02/28 12:31:32;;;;;;;0.80;0.52;;;13.30;1.00;;;;;;5015516;28;20134;-84
2024/02/28 12:34:00;;;;;;;0.98;0.70;;;13.40;1.00;;;;;;5023022;28;20069;-83
2024/02/28 12:36:28;;;;;;;0.90;0.60;;;13.50;1.00;;;;;;4993356;28;20072;-83
2024/02/28 12:38:55;;;;;;;1.73;0.95;;;13.50;1.00;;;;;;4995354;28;20061;-83
2024/02/28 12:41:22;;;;;;;0.50;0.50;;;13.40;1.00;;;;;;5028168;28;20053;-85
2024/02/28 12:43:49;;;;;;;0.95;0.60;;;13.40;1.00;;;;;;5043289;28;20064;-84
2024/02/28 12:46:16;;;;;;;0.90;0.70;;;13.40;1.00;;;;;;5012787;28;20111;-84
2024/02/28 12:48:46;;;;;;;0.88;0.60;;;13.30;1.00;;;;;;5012222;28;20053;-84
2024/02/28 12:51:21;;;;;;;3.00;0.90;;;13.20;1.00;;;;;;5042890;28;20053;-84
2024/02/28 12:53:49;;;;;;;1.65;0.82;;;13.20;1.00;;;;;;5027568;28;20049;-84
2024/02/28 12:56:18;;;;;;;1.30;0.70;;;13.20;1.00;;;;;;5018239;28;20122;-84
2024/02/28 12:58:45;;;;;;;0.60;0.60;;;13.20;1.00;;;;;;5008107;28;20187;-84